RUK85AN EGHQ-EGSS
Flight info
| Callsign | RUK85AN |
|---|---|
| Flight time | 0h 51m |
| Altitude | 33000 |
| Route | DAWLY N17 TELTU |
| Aircraft | B38M/M-SADE3FGILRWY/SB1 |
Departure
| Time | 2026-04-26 10:51 |
|---|---|
| Airport | Cornwall Airport Newquay (EGHQ) |
Arrival
| Time | 2026-04-26 11:43 |
|---|---|
| Airport | London Stansted Airport (EGSS) |
| Time | Latitude | Longitude | Altitude | Speed | Heading |
|---|---|---|---|---|---|
| 2026-04-26 10:15 | 50.44653 | -5.00380 | 338 ft | 0 kts | 81° |
| 2026-04-26 10:44 | 50.44653 | -5.00385 | 334 ft | 3 kts | 81° |
| 2026-04-26 10:44 | 50.44647 | -5.00422 | 337 ft | 4 kts | 48° |
| 2026-04-26 10:44 | 50.44628 | -5.00436 | 336 ft | 4 kts | 354° |
| 2026-04-26 10:45 | 50.44611 | -5.00416 | 336 ft | 4 kts | 298° |
| 2026-04-26 10:45 | 50.44600 | -5.00382 | 337 ft | 1 kts | 300° |
| 2026-04-26 10:45 | 50.44600 | -5.00381 | 337 ft | 0 kts | 300° |
| 2026-04-26 10:47 | 50.44610 | -5.00407 | 331 ft | 6 kts | 300° |
| 2026-04-26 10:48 | 50.44639 | -5.00487 | 329 ft | 11 kts | 300° |
| 2026-04-26 10:48 | 50.44690 | -5.00624 | 328 ft | 17 kts | 300° |
| 2026-04-26 10:48 | 50.44734 | -5.00741 | 326 ft | 1 kts | 301° |
| 2026-04-26 10:48 | 50.44749 | -5.00782 | 322 ft | 7 kts | 301° |
| 2026-04-26 10:49 | 50.44785 | -5.00878 | 320 ft | 13 kts | 298° |
| 2026-04-26 10:49 | 50.44800 | -5.01038 | 318 ft | 12 kts | 256° |
| 2026-04-26 10:49 | 50.44772 | -5.01109 | 316 ft | 1 kts | 222° |
| 2026-04-26 10:49 | 50.44772 | -5.01110 | 316 ft | 0 kts | 222° |
| 2026-04-26 10:50 | 50.44767 | -5.01116 | 316 ft | 3 kts | 220° |
| 2026-04-26 10:50 | 50.44741 | -5.01142 | 315 ft | 6 kts | 211° |
| 2026-04-26 10:50 | 50.44697 | -5.01150 | 315 ft | 7 kts | 158° |
| 2026-04-26 10:50 | 50.44665 | -5.01097 | 319 ft | 7 kts | 122° |
| 2026-04-26 10:51 | 50.44630 | -5.01010 | 319 ft | 28 kts | 121° |
| 2026-04-26 10:51 | 50.43817 | -4.98939 | 567 ft | 168 kts | 124° |
| 2026-04-26 10:51 | 50.43293 | -4.97190 | 1437 ft | 178 kts | 101° |
| 2026-04-26 10:52 | 50.43413 | -4.95236 | 2381 ft | 191 kts | 75° |
| 2026-04-26 10:52 | 50.44026 | -4.93247 | 3043 ft | 214 kts | 66° |
| 2026-04-26 10:52 | 50.44388 | -4.90879 | 3700 ft | 236 kts | 85° |
| 2026-04-26 10:52 | 50.44636 | -4.88293 | 4732 ft | 242 kts | 81° |
| 2026-04-26 10:53 | 50.44914 | -4.85593 | 5538 ft | 260 kts | 82° |
| 2026-04-26 10:53 | 50.45202 | -4.82715 | 6402 ft | 269 kts | 82° |
| 2026-04-26 10:53 | 50.45487 | -4.79797 | 7436 ft | 274 kts | 82° |
| 2026-04-26 10:54 | 50.46067 | -4.73753 | 9349 ft | 285 kts | 82° |
| 2026-04-26 10:54 | 50.46361 | -4.70647 | 10290 ft | 290 kts | 82° |
| 2026-04-26 10:54 | 50.46662 | -4.67452 | 11003 ft | 305 kts | 82° |
| 2026-04-26 10:54 | 50.46981 | -4.64073 | 11609 ft | 320 kts | 82° |
| 2026-04-26 10:55 | 50.47312 | -4.60563 | 12319 ft | 332 kts | 82° |
| 2026-04-26 10:55 | 50.47646 | -4.56956 | 13148 ft | 336 kts | 82° |
| 2026-04-26 10:55 | 50.47988 | -4.53303 | 14000 ft | 341 kts | 83° |
| 2026-04-26 10:55 | 50.48329 | -4.49627 | 14806 ft | 347 kts | 83° |
| 2026-04-26 10:56 | 50.48678 | -4.45862 | 15632 ft | 351 kts | 83° |
| 2026-04-26 10:56 | 50.49032 | -4.42033 | 16392 ft | 356 kts | 83° |
| 2026-04-26 10:56 | 50.49392 | -4.38107 | 17178 ft | 361 kts | 84° |
| 2026-04-26 10:56 | 50.49746 | -4.34234 | 17896 ft | 366 kts | 84° |
| 2026-04-26 10:57 | 50.50108 | -4.30264 | 18617 ft | 369 kts | 84° |
| 2026-04-26 10:57 | 50.50473 | -4.26247 | 19289 ft | 374 kts | 84° |
| 2026-04-26 10:57 | 50.50841 | -4.22184 | 19962 ft | 378 kts | 84° |
| 2026-04-26 10:57 | 50.51211 | -4.18080 | 20613 ft | 382 kts | 84° |
| 2026-04-26 10:58 | 50.51583 | -4.13929 | 21260 ft | 385 kts | 84° |
| 2026-04-26 10:58 | 50.51957 | -4.09743 | 21868 ft | 389 kts | 84° |
| 2026-04-26 10:58 | 50.52334 | -4.05511 | 22451 ft | 394 kts | 84° |
| 2026-04-26 10:58 | 50.52712 | -4.01239 | 23040 ft | 396 kts | 84° |
| 2026-04-26 10:59 | 50.53092 | -3.96926 | 23576 ft | 400 kts | 84° |
| 2026-04-26 10:59 | 50.53474 | -3.92582 | 24108 ft | 403 kts | 83° |
| 2026-04-26 10:59 | 50.53856 | -3.88214 | 24628 ft | 407 kts | 83° |
| 2026-04-26 10:59 | 50.54240 | -3.83793 | 25145 ft | 410 kts | 83° |
| 2026-04-26 11:00 | 50.54626 | -3.79342 | 25614 ft | 414 kts | 83° |
| 2026-04-26 11:00 | 50.55014 | -3.74839 | 26101 ft | 416 kts | 83° |
| 2026-04-26 11:00 | 50.55403 | -3.70313 | 26545 ft | 420 kts | 83° |
| 2026-04-26 11:00 | 50.55793 | -3.65740 | 26973 ft | 424 kts | 83° |
| 2026-04-26 11:01 | 50.56186 | -3.61131 | 27412 ft | 426 kts | 83° |
| 2026-04-26 11:01 | 50.56578 | -3.56498 | 27836 ft | 430 kts | 83° |
| 2026-04-26 11:01 | 50.56974 | -3.51821 | 28256 ft | 432 kts | 83° |
| 2026-04-26 11:01 | 50.57380 | -3.47114 | 28660 ft | 436 kts | 81° |
| 2026-04-26 11:02 | 50.57943 | -3.42413 | 29041 ft | 439 kts | 80° |
| 2026-04-26 11:02 | 50.58505 | -3.37673 | 29431 ft | 441 kts | 80° |
| 2026-04-26 11:02 | 50.59039 | -3.33068 | 29792 ft | 444 kts | 80° |
| 2026-04-26 11:02 | 50.59590 | -3.28273 | 30155 ft | 446 kts | 80° |
| 2026-04-26 11:03 | 50.60142 | -3.23451 | 30510 ft | 449 kts | 80° |
| 2026-04-26 11:03 | 50.60693 | -3.18604 | 30873 ft | 451 kts | 80° |
| 2026-04-26 11:03 | 50.61232 | -3.13855 | 31223 ft | 453 kts | 80° |
| 2026-04-26 11:03 | 50.61748 | -3.09281 | 31569 ft | 454 kts | 80° |
| 2026-04-26 11:04 | 50.62300 | -3.04385 | 32006 ft | 454 kts | 80° |
| 2026-04-26 11:04 | 50.62849 | -2.99508 | 32449 ft | 453 kts | 80° |
| 2026-04-26 11:04 | 50.63402 | -2.94630 | 32907 ft | 451 kts | 80° |
| 2026-04-26 11:04 | 50.63951 | -2.89761 | 33251 ft | 452 kts | 80° |
| 2026-04-26 11:05 | 50.65040 | -2.80064 | 33299 ft | 447 kts | 80° |
| 2026-04-26 11:05 | 50.66112 | -2.70424 | 33295 ft | 446 kts | 80° |
| 2026-04-26 11:06 | 50.67176 | -2.60796 | 33289 ft | 446 kts | 80° |
| 2026-04-26 11:06 | 50.68126 | -2.51140 | 33271 ft | 445 kts | 89° |
| 2026-04-26 11:07 | 50.67761 | -2.41475 | 33267 ft | 446 kts | 94° |
| 2026-04-26 11:07 | 50.67368 | -2.31718 | 33286 ft | 446 kts | 94° |
| 2026-04-26 11:08 | 50.66951 | -2.22007 | 33232 ft | 438 kts | 94° |
| 2026-04-26 11:08 | 50.66743 | -2.17250 | 32862 ft | 433 kts | 94° |
| 2026-04-26 11:08 | 50.66534 | -2.12519 | 32317 ft | 433 kts | 94° |
| 2026-04-26 11:09 | 50.66325 | -2.07797 | 31798 ft | 431 kts | 94° |
| 2026-04-26 11:09 | 50.66119 | -2.03100 | 31330 ft | 427 kts | 93° |
| 2026-04-26 11:09 | 50.66166 | -1.98441 | 30838 ft | 424 kts | 87° |
| 2026-04-26 11:09 | 50.66261 | -1.93826 | 30436 ft | 420 kts | 88° |
| 2026-04-26 11:10 | 50.66328 | -1.89234 | 29999 ft | 417 kts | 88° |
| 2026-04-26 11:10 | 50.66378 | -1.84669 | 29535 ft | 416 kts | 89° |
| 2026-04-26 11:10 | 50.66420 | -1.80138 | 29093 ft | 414 kts | 89° |
| 2026-04-26 11:10 | 50.66457 | -1.75610 | 28654 ft | 412 kts | 89° |
| 2026-04-26 11:11 | 50.66492 | -1.71118 | 28222 ft | 409 kts | 89° |
| 2026-04-26 11:11 | 50.66525 | -1.66651 | 27787 ft | 407 kts | 89° |
| 2026-04-26 11:11 | 50.66556 | -1.62203 | 27367 ft | 405 kts | 89° |
| 2026-04-26 11:11 | 50.66585 | -1.57777 | 26946 ft | 403 kts | 89° |
| 2026-04-26 11:12 | 50.66848 | -1.53397 | 26457 ft | 401 kts | 74° |
| 2026-04-26 11:12 | 50.67675 | -1.49216 | 26040 ft | 398 kts | 73° |
| 2026-04-26 11:12 | 50.68435 | -1.45048 | 25684 ft | 395 kts | 73° |
| 2026-04-26 11:12 | 50.69198 | -1.40896 | 25279 ft | 393 kts | 73° |
| 2026-04-26 11:13 | 50.69959 | -1.36777 | 24877 ft | 391 kts | 73° |
| 2026-04-26 11:13 | 50.70718 | -1.32665 | 24467 ft | 389 kts | 73° |
| 2026-04-26 11:13 | 50.71471 | -1.28576 | 24065 ft | 388 kts | 73° |
| 2026-04-26 11:13 | 50.72220 | -1.24505 | 23666 ft | 386 kts | 73° |
| 2026-04-26 11:14 | 50.72964 | -1.20451 | 23267 ft | 383 kts | 73° |
| 2026-04-26 11:14 | 50.73703 | -1.16416 | 22879 ft | 381 kts | 73° |
| 2026-04-26 11:14 | 50.74437 | -1.12403 | 22477 ft | 379 kts | 73° |
| 2026-04-26 11:14 | 50.74919 | -1.09759 | 22211 ft | 378 kts | 73° |
| 2026-04-26 11:15 | 50.75886 | -1.04451 | 21690 ft | 376 kts | 74° |
| 2026-04-26 11:15 | 50.76604 | -1.00496 | 21304 ft | 374 kts | 74° |
| 2026-04-26 11:15 | 50.77317 | -0.96559 | 20916 ft | 372 kts | 74° |
| 2026-04-26 11:15 | 50.78025 | -0.92645 | 20535 ft | 369 kts | 74° |
| 2026-04-26 11:16 | 50.78728 | -0.88749 | 20150 ft | 368 kts | 74° |
| 2026-04-26 11:16 | 50.79424 | -0.84877 | 19770 ft | 366 kts | 75° |
| 2026-04-26 11:16 | 50.80117 | -0.81037 | 19394 ft | 361 kts | 74° |
| 2026-04-26 11:16 | 50.81140 | -0.77479 | 19187 ft | 353 kts | 53° |
| 2026-04-26 11:17 | 50.82857 | -0.74820 | 19030 ft | 342 kts | 32° |
| 2026-04-26 11:17 | 50.84953 | -0.73185 | 18874 ft | 332 kts | 21° |
| 2026-04-26 11:17 | 50.87072 | -0.71751 | 18707 ft | 332 kts | 21° |
| 2026-04-26 11:17 | 50.89197 | -0.70336 | 18532 ft | 331 kts | 21° |
| 2026-04-26 11:18 | 50.91324 | -0.68939 | 18364 ft | 331 kts | 21° |
| 2026-04-26 11:18 | 50.93451 | -0.67554 | 18184 ft | 330 kts | 21° |
| 2026-04-26 11:18 | 50.95573 | -0.66178 | 18014 ft | 329 kts | 21° |
| 2026-04-26 11:18 | 50.97691 | -0.64807 | 17847 ft | 329 kts | 21° |
| 2026-04-26 11:19 | 50.99808 | -0.63436 | 17678 ft | 328 kts | 21° |
| 2026-04-26 11:19 | 51.01906 | -0.62077 | 17515 ft | 327 kts | 21° |
| 2026-04-26 11:19 | 51.04012 | -0.60711 | 17338 ft | 325 kts | 21° |
| 2026-04-26 11:19 | 51.06075 | -0.59372 | 17174 ft | 324 kts | 21° |
| 2026-04-26 11:20 | 51.08191 | -0.57997 | 17002 ft | 323 kts | 21° |
| 2026-04-26 11:20 | 51.09567 | -0.57102 | 16894 ft | 323 kts | 21° |
| 2026-04-26 11:20 | 51.12337 | -0.55299 | 16673 ft | 322 kts | 21° |
| 2026-04-26 11:20 | 51.14381 | -0.53967 | 16505 ft | 320 kts | 21° |
| 2026-04-26 11:21 | 51.16439 | -0.52625 | 16340 ft | 319 kts | 21° |
| 2026-04-26 11:21 | 51.18519 | -0.51267 | 16167 ft | 318 kts | 21° |
| 2026-04-26 11:21 | 51.20567 | -0.49927 | 16008 ft | 318 kts | 21° |
| 2026-04-26 11:21 | 51.22578 | -0.48612 | 15849 ft | 316 kts | 21° |
| 2026-04-26 11:22 | 51.24610 | -0.47282 | 15688 ft | 315 kts | 21° |
| 2026-04-26 11:22 | 51.26636 | -0.45953 | 15521 ft | 314 kts | 21° |
| 2026-04-26 11:22 | 51.28653 | -0.44631 | 15361 ft | 314 kts | 21° |
| 2026-04-26 11:22 | 51.30662 | -0.43311 | 15199 ft | 313 kts | 21° |
| 2026-04-26 11:23 | 51.32676 | -0.41988 | 15033 ft | 311 kts | 21° |
| 2026-04-26 11:23 | 51.34700 | -0.40656 | 14852 ft | 311 kts | 21° |
| 2026-04-26 11:23 | 51.36668 | -0.39360 | 14712 ft | 310 kts | 21° |
| 2026-04-26 11:23 | 51.38658 | -0.38049 | 14555 ft | 309 kts | 21° |
| 2026-04-26 11:24 | 51.40642 | -0.36740 | 14395 ft | 308 kts | 21° |
| 2026-04-26 11:24 | 51.42621 | -0.35434 | 14235 ft | 307 kts | 21° |
| 2026-04-26 11:24 | 51.44559 | -0.34009 | 14062 ft | 306 kts | 25° |
| 2026-04-26 11:24 | 51.46475 | -0.32528 | 13895 ft | 305 kts | 25° |
| 2026-04-26 11:25 | 51.48388 | -0.31063 | 13749 ft | 305 kts | 25° |
| 2026-04-26 11:25 | 51.50303 | -0.29599 | 13605 ft | 304 kts | 25° |
| 2026-04-26 11:25 | 51.52204 | -0.28148 | 13438 ft | 303 kts | 25° |
| 2026-04-26 11:25 | 51.54100 | -0.26699 | 13287 ft | 302 kts | 25° |
| 2026-04-26 11:26 | 51.55992 | -0.25253 | 13125 ft | 301 kts | 25° |
| 2026-04-26 11:26 | 51.57882 | -0.23808 | 12974 ft | 300 kts | 25° |
| 2026-04-26 11:26 | 51.59766 | -0.22365 | 12822 ft | 300 kts | 25° |
| 2026-04-26 11:26 | 51.61645 | -0.20926 | 12661 ft | 299 kts | 25° |
| 2026-04-26 11:27 | 51.63521 | -0.19486 | 12511 ft | 299 kts | 25° |
| 2026-04-26 11:27 | 51.65397 | -0.18047 | 12364 ft | 298 kts | 25° |
| 2026-04-26 11:27 | 51.67251 | -0.16621 | 12211 ft | 297 kts | 25° |
| 2026-04-26 11:27 | 51.69111 | -0.15192 | 12056 ft | 296 kts | 25° |
| 2026-04-26 11:28 | 51.70967 | -0.13764 | 11904 ft | 295 kts | 25° |
| 2026-04-26 11:28 | 51.72811 | -0.12343 | 11746 ft | 294 kts | 25° |
| 2026-04-26 11:28 | 51.74663 | -0.10919 | 11597 ft | 294 kts | 24° |
| 2026-04-26 11:28 | 51.76531 | -0.09610 | 11429 ft | 292 kts | 22° |
| 2026-04-26 11:29 | 51.78391 | -0.08317 | 11268 ft | 291 kts | 22° |
| 2026-04-26 11:29 | 51.79624 | -0.07456 | 11176 ft | 291 kts | 23° |
| 2026-04-26 11:29 | 51.81479 | -0.06156 | 11036 ft | 291 kts | 23° |
| 2026-04-26 11:29 | 51.83143 | -0.04986 | 10897 ft | 290 kts | 23° |
| 2026-04-26 11:30 | 51.84985 | -0.03691 | 10749 ft | 289 kts | 23° |
| 2026-04-26 11:30 | 51.86826 | -0.02394 | 10606 ft | 288 kts | 23° |
| 2026-04-26 11:30 | 51.88659 | -0.01102 | 10463 ft | 287 kts | 23° |
| 2026-04-26 11:30 | 51.90408 | 0.00132 | 10302 ft | 285 kts | 23° |
| 2026-04-26 11:31 | 51.92212 | 0.01406 | 10145 ft | 281 kts | 23° |
| 2026-04-26 11:31 | 51.93994 | 0.02664 | 9857 ft | 279 kts | 23° |
| 2026-04-26 11:31 | 51.95768 | 0.03920 | 9578 ft | 277 kts | 23° |
| 2026-04-26 11:31 | 51.97450 | 0.05110 | 9390 ft | 271 kts | 23° |
| 2026-04-26 11:32 | 51.99197 | 0.06131 | 9213 ft | 263 kts | 8° |
| 2026-04-26 11:32 | 52.00995 | 0.06282 | 9075 ft | 255 kts | 2° |
| 2026-04-26 11:32 | 52.02733 | 0.06389 | 8967 ft | 248 kts | 2° |
| 2026-04-26 11:32 | 52.04480 | 0.06495 | 8839 ft | 259 kts | 2° |
| 2026-04-26 11:33 | 52.06340 | 0.06605 | 8709 ft | 273 kts | 2° |
| 2026-04-26 11:33 | 52.08206 | 0.06713 | 8565 ft | 279 kts | 2° |
| 2026-04-26 11:33 | 52.10151 | 0.06693 | 8405 ft | 280 kts | 351° |
| 2026-04-26 11:33 | 52.11861 | 0.05447 | 8220 ft | 278 kts | 319° |
| 2026-04-26 11:34 | 52.12903 | 0.02854 | 8073 ft | 278 kts | 285° |
| 2026-04-26 11:34 | 52.12919 | -0.00261 | 7944 ft | 280 kts | 255° |
| 2026-04-26 11:34 | 52.11982 | -0.03007 | 7804 ft | 281 kts | 225° |
| 2026-04-26 11:34 | 52.10310 | -0.04585 | 7667 ft | 281 kts | 193° |
| 2026-04-26 11:35 | 52.08369 | -0.04790 | 7547 ft | 281 kts | 181° |
| 2026-04-26 11:35 | 52.06422 | -0.04896 | 7435 ft | 279 kts | 183° |
| 2026-04-26 11:35 | 52.04482 | -0.05033 | 7295 ft | 278 kts | 183° |
| 2026-04-26 11:35 | 52.02556 | -0.05180 | 7075 ft | 277 kts | 183° |
| 2026-04-26 11:36 | 52.00648 | -0.04945 | 6776 ft | 276 kts | 165° |
| 2026-04-26 11:36 | 51.98812 | -0.04016 | 6439 ft | 276 kts | 163° |
| 2026-04-26 11:36 | 51.96976 | -0.03098 | 6093 ft | 276 kts | 163° |
| 2026-04-26 11:36 | 51.95234 | -0.02234 | 5778 ft | 276 kts | 163° |
| 2026-04-26 11:37 | 51.93376 | -0.01562 | 5407 ft | 275 kts | 174° |
| 2026-04-26 11:37 | 51.91489 | -0.01438 | 5113 ft | 274 kts | 179° |
| 2026-04-26 11:37 | 51.89580 | -0.01407 | 4775 ft | 274 kts | 179° |
| 2026-04-26 11:37 | 51.87854 | -0.01304 | 4467 ft | 274 kts | 176° |
| 2026-04-26 11:38 | 51.85952 | -0.01135 | 4137 ft | 274 kts | 176° |
| 2026-04-26 11:38 | 51.84054 | -0.00971 | 3825 ft | 272 kts | 176° |
| 2026-04-26 11:38 | 51.82226 | -0.00498 | 3624 ft | 263 kts | 155° |
| 2026-04-26 11:38 | 51.80779 | 0.01168 | 3567 ft | 249 kts | 136° |
| 2026-04-26 11:39 | 51.79590 | 0.03123 | 3417 ft | 240 kts | 126° |
| 2026-04-26 11:39 | 51.78959 | 0.05534 | 3034 ft | 230 kts | 97° |
| 2026-04-26 11:39 | 51.79142 | 0.07981 | 2760 ft | 215 kts | 69° |
| 2026-04-26 11:39 | 51.79804 | 0.10021 | 2524 ft | 192 kts | 58° |
| 2026-04-26 11:40 | 51.80582 | 0.11589 | 2295 ft | 169 kts | 48° |
| 2026-04-26 11:40 | 51.81386 | 0.12834 | 2069 ft | 150 kts | 44° |
| 2026-04-26 11:40 | 51.82119 | 0.13931 | 1856 ft | 138 kts | 46° |
| 2026-04-26 11:40 | 51.82802 | 0.14965 | 1678 ft | 134 kts | 45° |
| 2026-04-26 11:41 | 51.83489 | 0.16002 | 1489 ft | 136 kts | 46° |
| 2026-04-26 11:42 | 51.88300 | 0.23183 | 338 ft | 106 kts | 43° |
| 2026-04-26 11:43 | 51.88706 | 0.23792 | 344 ft | 64 kts | 43° |
| 2026-04-26 11:43 | 51.88860 | 0.24148 | 349 ft | 31 kts | 69° |
| 2026-04-26 11:43 | 51.88901 | 0.24346 | 350 ft | 15 kts | 72° |
| 2026-04-26 11:43 | 51.88913 | 0.24407 | 353 ft | 0 kts | 73° |
| 2026-04-26 11:44 | 51.88915 | 0.24417 | 352 ft | 3 kts | 73° |
| 2026-04-26 11:44 | 51.88914 | 0.24483 | 355 ft | 9 kts | 103° |
| 2026-04-26 11:44 | 51.88938 | 0.24626 | 355 ft | 18 kts | 45° |
| 2026-04-26 11:45 | 51.89015 | 0.24743 | 355 ft | 18 kts | 43° |
| 2026-04-26 11:45 | 51.89119 | 0.24903 | 357 ft | 23 kts | 44° |
| 2026-04-26 11:45 | 51.89233 | 0.25105 | 355 ft | 25 kts | 54° |
| 2026-04-26 11:45 | 51.89343 | 0.25312 | 355 ft | 25 kts | 43° |
| 2026-04-26 11:46 | 51.89380 | 0.25542 | 355 ft | 17 kts | 124° |
| 2026-04-26 11:46 | 51.89347 | 0.25603 | 355 ft | 7 kts | 132° |
| 2026-04-26 11:46 | 51.89327 | 0.25664 | 355 ft | 5 kts | 82° |
| 2026-04-26 11:46 | 51.89347 | 0.25708 | 355 ft | 5 kts | 44° |
| 2026-04-26 11:47 | 51.89363 | 0.25732 | 355 ft | 0 kts | 42° |